sensor_id;sensor_type;location;lat;lon;timestamp;P1;durP1;ratioP1;P2;durP2;ratioP2
22415;SDS011;12204;50.600;4.608;2023-04-24T00:03:27;1.52;;;0.80;;
22415;SDS011;12204;50.600;4.608;2023-04-24T00:08:31;1.63;;;0.70;;
22415;SDS011;12204;50.600;4.608;2023-04-24T00:13:35;2.42;;;0.80;;
22415;SDS011;12204;50.600;4.608;2023-04-24T00:18:39;2.08;;;0.70;;
22415;SDS011;12204;50.600;4.608;2023-04-24T00:23:43;1.65;;;0.80;;
22415;SDS011;12204;50.600;4.608;2023-04-24T00:28:47;2.35;;;0.93;;
22415;SDS011;12204;50.600;4.608;2023-04-24T00:33:52;3.22;;;1.00;;
22415;SDS011;12204;50.600;4.608;2023-04-24T00:38:55;2.00;;;0.80;;
22415;SDS011;12204;50.600;4.608;2023-04-24T00:43:59;2.97;;;0.90;;
22415;SDS011;12204;50.600;4.608;2023-04-24T00:49:04;3.47;;;0.80;;
22415;SDS011;12204;50.600;4.608;2023-04-24T00:54:08;2.15;;;1.00;;
22415;SDS011;12204;50.600;4.608;2023-04-24T00:59:11;2.90;;;0.88;;
22415;SDS011;12204;50.600;4.608;2023-04-24T01:04:16;1.90;;;0.85;;
22415;SDS011;12204;50.600;4.608;2023-04-24T01:09:22;2.55;;;1.00;;
22415;SDS011;12204;50.600;4.608;2023-04-24T01:14:26;2.08;;;0.90;;
22415;SDS011;12204;50.600;4.608;2023-04-24T01:19:31;3.80;;;1.00;;
22415;SDS011;12204;50.600;4.608;2023-04-24T01:24:35;2.67;;;1.00;;
22415;SDS011;12204;50.600;4.608;2023-04-24T01:29:40;2.03;;;0.90;;
22415;SDS011;12204;50.600;4.608;2023-04-24T01:34:44;2.50;;;1.00;;
22415;SDS011;12204;50.600;4.608;2023-04-24T01:39:50;2.75;;;1.00;;
22415;SDS011;12204;50.600;4.608;2023-04-24T01:44:54;2.65;;;0.93;;
22415;SDS011;12204;50.600;4.608;2023-04-24T01:49:57;2.67;;;1.08;;
22415;SDS011;12204;50.600;4.608;2023-04-24T01:55:03;2.70;;;1.00;;
22415;SDS011;12204;50.600;4.608;2023-04-24T02:00:09;4.53;;;1.30;;
22415;SDS011;12204;50.600;4.608;2023-04-24T02:05:14;2.40;;;1.15;;
22415;SDS011;12204;50.600;4.608;2023-04-24T02:10:19;2.97;;;1.10;;
22415;SDS011;12204;50.600;4.608;2023-04-24T02:15:23;2.80;;;1.05;;
22415;SDS011;12204;50.600;4.608;2023-04-24T02:20:26;2.35;;;1.10;;
22415;SDS011;12204;50.600;4.608;2023-04-24T02:25:31;2.90;;;1.10;;
22415;SDS011;12204;50.600;4.608;2023-04-24T02:30:35;3.45;;;0.98;;
22415;SDS011;12204;50.600;4.608;2023-04-24T02:35:39;2.20;;;1.00;;
22415;SDS011;12204;50.600;4.608;2023-04-24T02:40:44;2.58;;;1.02;;
22415;SDS011;12204;50.600;4.608;2023-04-24T02:45:49;2.23;;;1.07;;
22415;SDS011;12204;50.600;4.608;2023-04-24T02:50:53;3.05;;;1.10;;
22415;SDS011;12204;50.600;4.608;2023-04-24T02:55:58;2.28;;;1.00;;
22415;SDS011;12204;50.600;4.608;2023-04-24T03:01:01;2.15;;;0.98;;
22415;SDS011;12204;50.600;4.608;2023-04-24T03:06:05;2.92;;;1.20;;
22415;SDS011;12204;50.600;4.608;2023-04-24T03:11:10;1.92;;;1.02;;
22415;SDS011;12204;50.600;4.608;2023-04-24T03:16:15;2.38;;;0.93;;
22415;SDS011;12204;50.600;4.608;2023-04-24T03:21:20;1.85;;;1.00;;
22415;SDS011;12204;50.600;4.608;2023-04-24T03:26:26;2.28;;;1.10;;
22415;SDS011;12204;50.600;4.608;2023-04-24T03:31:45;2.35;;;0.90;;
22415;SDS011;12204;50.600;4.608;2023-04-24T03:36:50;2.63;;;1.00;;
22415;SDS011;12204;50.600;4.608;2023-04-24T03:41:56;2.88;;;1.10;;
22415;SDS011;12204;50.600;4.608;2023-04-24T03:47:09;2.35;;;1.10;;
22415;SDS011;12204;50.600;4.608;2023-04-24T03:52:13;2.20;;;0.98;;
22415;SDS011;12204;50.600;4.608;2023-04-24T03:57:18;2.67;;;1.00;;
22415;SDS011;12204;50.600;4.608;2023-04-24T04:02:35;2.15;;;1.00;;
22415;SDS011;12204;50.600;4.608;2023-04-24T04:07:39;3.28;;;1.10;;
22415;SDS011;12204;50.600;4.608;2023-04-24T04:12:44;1.92;;;0.90;;
22415;SDS011;12204;50.600;4.608;2023-04-24T04:17:48;2.00;;;1.08;;
22415;SDS011;12204;50.600;4.608;2023-04-24T04:22:51;2.50;;;1.10;;
22415;SDS011;12204;50.600;4.608;2023-04-24T04:28:09;2.28;;;1.05;;
22415;SDS011;12204;50.600;4.608;2023-04-24T04:33:13;2.58;;;1.00;;
22415;SDS011;12204;50.600;4.608;2023-04-24T04:38:18;2.50;;;1.00;;
22415;SDS011;12204;50.600;4.608;2023-04-24T04:43:39;3.10;;;1.00;;
22415;SDS011;12204;50.600;4.608;2023-04-24T04:48:45;2.67;;;1.10;;
22415;SDS011;12204;50.600;4.608;2023-04-24T04:53:49;2.20;;;1.00;;
22415;SDS011;12204;50.600;4.608;2023-04-24T04:58:54;1.98;;;1.00;;
22415;SDS011;12204;50.600;4.608;2023-04-24T05:04:00;1.83;;;0.95;;
22415;SDS011;12204;50.600;4.608;2023-04-24T05:09:05;2.63;;;1.17;;
22415;SDS011;12204;50.600;4.608;2023-04-24T05:14:30;1.63;;;0.90;;
22415;SDS011;12204;50.600;4.608;2023-04-24T05:19:34;2.15;;;1.00;;
22415;SDS011;12204;50.600;4.608;2023-04-24T05:24:40;2.25;;;1.20;;
22415;SDS011;12204;50.600;4.608;2023-04-24T05:30:15;2.10;;;0.95;;
22415;SDS011;12204;50.600;4.608;2023-04-24T05:35:18;3.28;;;1.20;;
22415;SDS011;12204;50.600;4.608;2023-04-24T05:40:22;2.30;;;1.00;;
22415;SDS011;12204;50.600;4.608;2023-04-24T05:45:27;2.60;;;1.15;;
22415;SDS011;12204;50.600;4.608;2023-04-24T05:50:30;2.33;;;1.00;;
22415;SDS011;12204;50.600;4.608;2023-04-24T05:55:37;2.75;;;1.00;;
22415;SDS011;12204;50.600;4.608;2023-04-24T06:00:42;2.17;;;1.10;;
22415;SDS011;12204;50.600;4.608;2023-04-24T06:05:49;2.05;;;0.95;;
22415;SDS011;12204;50.600;4.608;2023-04-24T06:10:55;3.28;;;1.10;;
22415;SDS011;12204;50.600;4.608;2023-04-24T06:16:00;3.03;;;1.10;;
22415;SDS011;12204;50.600;4.608;2023-04-24T06:21:08;3.40;;;1.10;;
22415;SDS011;12204;50.600;4.608;2023-04-24T06:26:12;2.55;;;1.10;;
22415;SDS011;12204;50.600;4.608;2023-04-24T06:31:17;2.17;;;1.00;;
22415;SDS011;12204;50.600;4.608;2023-04-24T06:36:21;2.45;;;1.15;;
22415;SDS011;12204;50.600;4.608;2023-04-24T06:41:24;2.92;;;1.17;;
22415;SDS011;12204;50.600;4.608;2023-04-24T06:46:29;2.10;;;1.20;;
22415;SDS011;12204;50.600;4.608;2023-04-24T06:56:39;2.72;;;1.10;;
22415;SDS011;12204;50.600;4.608;2023-04-24T07:01:44;2.58;;;1.00;;
22415;SDS011;12204;50.600;4.608;2023-04-24T07:06:47;2.92;;;1.30;;
22415;SDS011;12204;50.600;4.608;2023-04-24T07:11:52;4.43;;;1.10;;
22415;SDS011;12204;50.600;4.608;2023-04-24T07:16:59;3.20;;;1.23;;
22415;SDS011;12204;50.600;4.608;2023-04-24T07:22:02;3.00;;;1.20;;
22415;SDS011;12204;50.600;4.608;2023-04-24T07:27:06;2.75;;;1.25;;
22415;SDS011;12204;50.600;4.608;2023-04-24T07:32:10;3.90;;;1.30;;
22415;SDS011;12204;50.600;4.608;2023-04-24T07:37:14;3.00;;;1.35;;
22415;SDS011;12204;50.600;4.608;2023-04-24T07:42:17;2.58;;;1.30;;
22415;SDS011;12204;50.600;4.608;2023-04-24T07:47:22;3.63;;;1.23;;
22415;SDS011;12204;50.600;4.608;2023-04-24T07:52:26;3.15;;;1.40;;
22415;SDS011;12204;50.600;4.608;2023-04-24T07:57:29;3.35;;;1.30;;
22415;SDS011;12204;50.600;4.608;2023-04-24T08:02:34;3.33;;;1.20;;
22415;SDS011;12204;50.600;4.608;2023-04-24T08:07:38;3.92;;;1.50;;
22415;SDS011;12204;50.600;4.608;2023-04-24T08:12:43;3.13;;;1.30;;
22415;SDS011;12204;50.600;4.608;2023-04-24T08:17:48;2.80;;;1.30;;
22415;SDS011;12204;50.600;4.608;2023-04-24T08:22:52;3.50;;;1.50;;
22415;SDS011;12204;50.600;4.608;2023-04-24T08:27:56;3.03;;;1.30;;
22415;SDS011;12204;50.600;4.608;2023-04-24T08:33:00;2.75;;;1.33;;
22415;SDS011;12204;50.600;4.608;2023-04-24T08:38:06;4.20;;;1.48;;
22415;SDS011;12204;50.600;4.608;2023-04-24T08:43:09;4.75;;;1.60;;
22415;SDS011;12204;50.600;4.608;2023-04-24T08:48:17;4.10;;;1.50;;
22415;SDS011;12204;50.600;4.608;2023-04-24T08:53:32;3.80;;;1.40;;
22415;SDS011;12204;50.600;4.608;2023-04-24T08:58:36;2.78;;;1.40;;
22415;SDS011;12204;50.600;4.608;2023-04-24T09:03:42;4.30;;;1.63;;
22415;SDS011;12204;50.600;4.608;2023-04-24T09:08:46;3.65;;;1.50;;
22415;SDS011;12204;50.600;4.608;2023-04-24T09:13:53;4.70;;;1.60;;
22415;SDS011;12204;50.600;4.608;2023-04-24T09:18:58;3.17;;;1.40;;
22415;SDS011;12204;50.600;4.608;2023-04-24T09:24:02;3.08;;;1.60;;
22415;SDS011;12204;50.600;4.608;2023-04-24T09:29:13;3.80;;;1.48;;
22415;SDS011;12204;50.600;4.608;2023-04-24T09:34:22;3.20;;;1.50;;
22415;SDS011;12204;50.600;4.608;2023-04-24T09:39:27;3.53;;;1.60;;
22415;SDS011;12204;50.600;4.608;2023-04-24T09:44:31;4.15;;;1.40;;
22415;SDS011;12204;50.600;4.608;2023-04-24T09:49:39;3.70;;;1.50;;
22415;SDS011;12204;50.600;4.608;2023-04-24T09:54:47;4.03;;;1.70;;
22415;SDS011;12204;50.600;4.608;2023-04-24T09:59:56;5.25;;;1.70;;
22415;SDS011;12204;50.600;4.608;2023-04-24T10:05:02;3.47;;;1.60;;
22415;SDS011;12204;50.600;4.608;2023-04-24T10:10:07;3.70;;;1.60;;
22415;SDS011;12204;50.600;4.608;2023-04-24T10:15:12;4.57;;;1.70;;
22415;SDS011;12204;50.600;4.608;2023-04-24T10:20:18;4.82;;;1.70;;
22415;SDS011;12204;50.600;4.608;2023-04-24T10:25:24;3.80;;;1.73;;
22415;SDS011;12204;50.600;4.608;2023-04-24T10:30:30;5.03;;;1.73;;
22415;SDS011;12204;50.600;4.608;2023-04-24T10:35:41;3.78;;;1.60;;
22415;SDS011;12204;50.600;4.608;2023-04-24T10:40:50;3.72;;;1.70;;
22415;SDS011;12204;50.600;4.608;2023-04-24T10:46:00;4.45;;;1.65;;
22415;SDS011;12204;50.600;4.608;2023-04-24T10:51:06;4.05;;;1.83;;
22415;SDS011;12204;50.600;4.608;2023-04-24T10:56:15;4.07;;;1.67;;
22415;SDS011;12204;50.600;4.608;2023-04-24T11:01:23;4.57;;;1.70;;
22415;SDS011;12204;50.600;4.608;2023-04-24T11:06:32;4.20;;;1.60;;
22415;SDS011;12204;50.600;4.608;2023-04-24T11:11:38;3.45;;;1.60;;
22415;SDS011;12204;50.600;4.608;2023-04-24T11:16:51;4.63;;;1.80;;
22415;SDS011;12204;50.600;4.608;2023-04-24T11:21:59;4.40;;;1.63;;
22415;SDS011;12204;50.600;4.608;2023-04-24T11:27:07;4.57;;;1.77;;
22415;SDS011;12204;50.600;4.608;2023-04-24T11:32:17;3.30;;;1.73;;
22415;SDS011;12204;50.600;4.608;2023-04-24T11:37:35;3.33;;;1.52;;
22415;SDS011;12204;50.600;4.608;2023-04-24T11:42:41;4.18;;;1.85;;
22415;SDS011;12204;50.600;4.608;2023-04-24T11:47:46;5.07;;;2.00;;
22415;SDS011;12204;50.600;4.608;2023-04-24T11:52:52;4.07;;;2.08;;
22415;SDS011;12204;50.600;4.608;2023-04-24T11:57:57;4.38;;;2.05;;
22415;SDS011;12204;50.600;4.608;2023-04-24T12:03:05;4.57;;;2.13;;
22415;SDS011;12204;50.600;4.608;2023-04-24T12:08:12;5.60;;;1.80;;
22415;SDS011;12204;50.600;4.608;2023-04-24T12:13:30;3.67;;;1.90;;
22415;SDS011;12204;50.600;4.608;2023-04-24T12:18:34;3.55;;;1.88;;
22415;SDS011;12204;50.600;4.608;2023-04-24T12:23:39;4.78;;;2.10;;
22415;SDS011;12204;50.600;4.608;2023-04-24T12:28:47;4.40;;;2.13;;
22415;SDS011;12204;50.600;4.608;2023-04-24T12:33:52;4.80;;;2.10;;
22415;SDS011;12204;50.600;4.608;2023-04-24T12:38:57;5.05;;;2.28;;
22415;SDS011;12204;50.600;4.608;2023-04-24T12:44:00;4.60;;;2.33;;
22415;SDS011;12204;50.600;4.608;2023-04-24T12:49:03;4.38;;;2.08;;
22415;SDS011;12204;50.600;4.608;2023-04-24T12:54:08;4.00;;;2.08;;
22415;SDS011;12204;50.600;4.608;2023-04-24T12:59:13;4.93;;;2.10;;
22415;SDS011;12204;50.600;4.608;2023-04-24T13:04:16;4.13;;;2.00;;
22415;SDS011;12204;50.600;4.608;2023-04-24T13:09:21;3.35;;;1.80;;
22415;SDS011;12204;50.600;4.608;2023-04-24T13:14:25;4.40;;;2.10;;
22415;SDS011;12204;50.600;4.608;2023-04-24T13:19:28;3.97;;;1.98;;
22415;SDS011;12204;50.600;4.608;2023-04-24T13:24:34;4.22;;;1.98;;
22415;SDS011;12204;50.600;4.608;2023-04-24T13:29:40;5.10;;;2.10;;
22415;SDS011;12204;50.600;4.608;2023-04-24T13:34:43;4.18;;;2.10;;
22415;SDS011;12204;50.600;4.608;2023-04-24T13:39:50;3.47;;;1.95;;
22415;SDS011;12204;50.600;4.608;2023-04-24T13:44:54;4.82;;;2.08;;
22415;SDS011;12204;50.600;4.608;2023-04-24T13:49:59;4.03;;;1.92;;
22415;SDS011;12204;50.600;4.608;2023-04-24T13:55:04;3.78;;;1.95;;
22415;SDS011;12204;50.600;4.608;2023-04-24T14:00:09;4.10;;;1.98;;
22415;SDS011;12204;50.600;4.608;2023-04-24T14:05:14;3.95;;;1.90;;
22415;SDS011;12204;50.600;4.608;2023-04-24T14:10:19;4.75;;;1.95;;
22415;SDS011;12204;50.600;4.608;2023-04-24T14:15:23;3.72;;;1.90;;
22415;SDS011;12204;50.600;4.608;2023-04-24T14:20:26;4.07;;;2.10;;
22415;SDS011;12204;50.600;4.608;2023-04-24T14:25:31;4.43;;;1.90;;
22415;SDS011;12204;50.600;4.608;2023-04-24T14:30:34;3.95;;;2.05;;
22415;SDS011;12204;50.600;4.608;2023-04-24T14:35:38;3.80;;;1.92;;
22415;SDS011;12204;50.600;4.608;2023-04-24T14:40:45;4.35;;;2.05;;
22415;SDS011;12204;50.600;4.608;2023-04-24T14:45:51;3.55;;;2.05;;
22415;SDS011;12204;50.600;4.608;2023-04-24T14:50:55;3.85;;;2.00;;
22415;SDS011;12204;50.600;4.608;2023-04-24T14:56:00;3.28;;;1.88;;
22415;SDS011;12204;50.600;4.608;2023-04-24T15:01:04;3.95;;;1.90;;
22415;SDS011;12204;50.600;4.608;2023-04-24T15:06:07;4.75;;;2.00;;
22415;SDS011;12204;50.600;4.608;2023-04-24T15:11:12;3.70;;;2.10;;
22415;SDS011;12204;50.600;4.608;2023-04-24T15:16:15;4.60;;;2.20;;
22415;SDS011;12204;50.600;4.608;2023-04-24T15:21:19;3.95;;;2.05;;
22415;SDS011;12204;50.600;4.608;2023-04-24T15:26:24;4.15;;;2.05;;
22415;SDS011;12204;50.600;4.608;2023-04-24T15:31:28;4.55;;;2.20;;
22415;SDS011;12204;50.600;4.608;2023-04-24T15:36:32;3.97;;;2.20;;
22415;SDS011;12204;50.600;4.608;2023-04-24T15:41:37;2.85;;;1.80;;
22415;SDS011;12204;50.600;4.608;2023-04-24T15:46:40;4.63;;;2.17;;
22415;SDS011;12204;50.600;4.608;2023-04-24T15:51:44;3.83;;;1.88;;
22415;SDS011;12204;50.600;4.608;2023-04-24T15:56:49;3.25;;;1.75;;
22415;SDS011;12204;50.600;4.608;2023-04-24T16:01:53;4.07;;;2.00;;
22415;SDS011;12204;50.600;4.608;2023-04-24T16:06:57;3.35;;;1.83;;
22415;SDS011;12204;50.600;4.608;2023-04-24T16:12:01;4.00;;;1.80;;
22415;SDS011;12204;50.600;4.608;2023-04-24T16:17:05;3.95;;;1.90;;
22415;SDS011;12204;50.600;4.608;2023-04-24T16:22:09;5.68;;;2.05;;
22415;SDS011;12204;50.600;4.608;2023-04-24T16:27:14;4.97;;;1.95;;
22415;SDS011;12204;50.600;4.608;2023-04-24T16:32:17;21.27;;;2.50;;
22415;SDS011;12204;50.600;4.608;2023-04-24T16:37:21;13.40;;;2.38;;
22415;SDS011;12204;50.600;4.608;2023-04-24T16:42:25;9.63;;;2.28;;
22415;SDS011;12204;50.600;4.608;2023-04-24T16:47:29;53.50;;;4.07;;
22415;SDS011;12204;50.600;4.608;2023-04-24T16:52:33;34.28;;;3.13;;
22415;SDS011;12204;50.600;4.608;2023-04-24T16:57:38;26.83;;;2.47;;
22415;SDS011;12204;50.600;4.608;2023-04-24T17:02:41;20.65;;;2.10;;
22415;SDS011;12204;50.600;4.608;2023-04-24T17:07:48;21.03;;;2.20;;
22415;SDS011;12204;50.600;4.608;2023-04-24T17:12:54;19.83;;;1.90;;
22415;SDS011;12204;50.600;4.608;2023-04-24T17:17:57;13.20;;;1.80;;
22415;SDS011;12204;50.600;4.608;2023-04-24T17:23:01;12.27;;;1.73;;
22415;SDS011;12204;50.600;4.608;2023-04-24T17:28:08;9.70;;;1.70;;
22415;SDS011;12204;50.600;4.608;2023-04-24T17:33:22;7.30;;;1.77;;
22415;SDS011;12204;50.600;4.608;2023-04-24T17:38:26;5.82;;;1.60;;
22415;SDS011;12204;50.600;4.608;2023-04-24T17:43:31;5.82;;;1.35;;
22415;SDS011;12204;50.600;4.608;2023-04-24T17:48:35;11.82;;;1.45;;
22415;SDS011;12204;50.600;4.608;2023-04-24T17:53:38;7.10;;;1.40;;
22415;SDS011;12204;50.600;4.608;2023-04-24T17:58:46;7.38;;;1.70;;
22415;SDS011;12204;50.600;4.608;2023-04-24T18:03:50;12.50;;;1.80;;
22415;SDS011;12204;50.600;4.608;2023-04-24T18:08:54;12.35;;;1.50;;
22415;SDS011;12204;50.600;4.608;2023-04-24T18:13:58;8.82;;;1.58;;
22415;SDS011;12204;50.600;4.608;2023-04-24T18:19:02;12.02;;;1.63;;
22415;SDS011;12204;50.600;4.608;2023-04-24T18:24:06;8.23;;;2.33;;
22415;SDS011;12204;50.600;4.608;2023-04-24T18:29:10;11.52;;;1.95;;
22415;SDS011;12204;50.600;4.608;2023-04-24T18:34:14;11.98;;;2.00;;
22415;SDS011;12204;50.600;4.608;2023-04-24T18:39:17;8.98;;;1.73;;
22415;SDS011;12204;50.600;4.608;2023-04-24T18:44:24;7.10;;;1.63;;
22415;SDS011;12204;50.600;4.608;2023-04-24T18:49:28;10.02;;;1.90;;
22415;SDS011;12204;50.600;4.608;2023-04-24T18:54:31;11.55;;;1.75;;
22415;SDS011;12204;50.600;4.608;2023-04-24T18:59:36;8.93;;;1.73;;
22415;SDS011;12204;50.600;4.608;2023-04-24T19:04:40;9.18;;;1.98;;
22415;SDS011;12204;50.600;4.608;2023-04-24T19:09:43;9.70;;;1.70;;
22415;SDS011;12204;50.600;4.608;2023-04-24T19:14:48;10.90;;;1.80;;
22415;SDS011;12204;50.600;4.608;2023-04-24T19:19:56;10.38;;;1.60;;
22415;SDS011;12204;50.600;4.608;2023-04-24T19:25:00;12.25;;;2.00;;
22415;SDS011;12204;50.600;4.608;2023-04-24T19:30:07;11.02;;;2.13;;
22415;SDS011;12204;50.600;4.608;2023-04-24T19:35:14;8.63;;;2.17;;
22415;SDS011;12204;50.600;4.608;2023-04-24T19:40:18;15.23;;;2.15;;
22415;SDS011;12204;50.600;4.608;2023-04-24T19:45:23;10.48;;;2.25;;
22415;SDS011;12204;50.600;4.608;2023-04-24T19:50:26;9.77;;;1.83;;
22415;SDS011;12204;50.600;4.608;2023-04-24T19:55:38;9.30;;;2.10;;
22415;SDS011;12204;50.600;4.608;2023-04-24T20:00:43;8.55;;;1.90;;
22415;SDS011;12204;50.600;4.608;2023-04-24T20:05:46;7.15;;;2.00;;
22415;SDS011;12204;50.600;4.608;2023-04-24T20:10:50;12.63;;;1.90;;
22415;SDS011;12204;50.600;4.608;2023-04-24T20:15:56;9.18;;;2.03;;
22415;SDS011;12204;50.600;4.608;2023-04-24T20:20:59;11.32;;;2.10;;
22415;SDS011;12204;50.600;4.608;2023-04-24T20:26:03;10.07;;;1.90;;
22415;SDS011;12204;50.600;4.608;2023-04-24T20:31:10;9.68;;;1.90;;
22415;SDS011;12204;50.600;4.608;2023-04-24T20:36:13;9.90;;;1.80;;
22415;SDS011;12204;50.600;4.608;2023-04-24T20:41:17;11.73;;;2.10;;
22415;SDS011;12204;50.600;4.608;2023-04-24T20:46:22;10.98;;;1.90;;
22415;SDS011;12204;50.600;4.608;2023-04-24T20:51:26;8.98;;;1.85;;
22415;SDS011;12204;50.600;4.608;2023-04-24T20:56:30;12.07;;;2.00;;
22415;SDS011;12204;50.600;4.608;2023-04-24T21:01:35;8.50;;;1.80;;
22415;SDS011;12204;50.600;4.608;2023-04-24T21:06:38;10.07;;;1.80;;
22415;SDS011;12204;50.600;4.608;2023-04-24T21:11:42;7.22;;;1.75;;
22415;SDS011;12204;50.600;4.608;2023-04-24T21:16:47;10.80;;;1.80;;
22415;SDS011;12204;50.600;4.608;2023-04-24T21:21:51;8.23;;;1.77;;
22415;SDS011;12204;50.600;4.608;2023-04-24T21:26:54;9.85;;;1.85;;
22415;SDS011;12204;50.600;4.608;2023-04-24T21:31:59;10.27;;;1.67;;
22415;SDS011;12204;50.600;4.608;2023-04-24T21:37:02;6.95;;;1.70;;
22415;SDS011;12204;50.600;4.608;2023-04-24T21:42:06;5.50;;;1.52;;
22415;SDS011;12204;50.600;4.608;2023-04-24T21:47:11;6.15;;;1.60;;
22415;SDS011;12204;50.600;4.608;2023-04-24T21:52:14;8.43;;;1.70;;
22415;SDS011;12204;50.600;4.608;2023-04-24T21:57:18;7.75;;;1.40;;
22415;SDS011;12204;50.600;4.608;2023-04-24T22:02:23;6.80;;;1.60;;
22415;SDS011;12204;50.600;4.608;2023-04-24T22:07:26;8.82;;;1.42;;
22415;SDS011;12204;50.600;4.608;2023-04-24T22:12:30;6.50;;;1.60;;
22415;SDS011;12204;50.600;4.608;2023-04-24T22:17:35;4.60;;;1.30;;
22415;SDS011;12204;50.600;4.608;2023-04-24T22:22:39;5.38;;;1.50;;
22415;SDS011;12204;50.600;4.608;2023-04-24T22:27:42;7.10;;;1.58;;
22415;SDS011;12204;50.600;4.608;2023-04-24T22:32:47;6.20;;;1.50;;
22415;SDS011;12204;50.600;4.608;2023-04-24T22:37:52;8.88;;;1.73;;
22415;SDS011;12204;50.600;4.608;2023-04-24T22:42:56;9.38;;;1.45;;
22415;SDS011;12204;50.600;4.608;2023-04-24T22:48:01;7.30;;;1.60;;
22415;SDS011;12204;50.600;4.608;2023-04-24T22:53:05;5.40;;;1.52;;
22415;SDS011;12204;50.600;4.608;2023-04-24T22:58:09;6.13;;;1.33;;
22415;SDS011;12204;50.600;4.608;2023-04-24T23:03:14;10.20;;;1.50;;
22415;SDS011;12204;50.600;4.608;2023-04-24T23:08:18;6.45;;;1.42;;
22415;SDS011;12204;50.600;4.608;2023-04-24T23:13:21;3.63;;;1.20;;
22415;SDS011;12204;50.600;4.608;2023-04-24T23:18:26;5.85;;;1.58;;
22415;SDS011;12204;50.600;4.608;2023-04-24T23:23:29;7.47;;;1.52;;
22415;SDS011;12204;50.600;4.608;2023-04-24T23:28:33;3.85;;;1.38;;
22415;SDS011;12204;50.600;4.608;2023-04-24T23:33:39;4.65;;;1.40;;
22415;SDS011;12204;50.600;4.608;2023-04-24T23:38:42;4.13;;;1.40;;
22415;SDS011;12204;50.600;4.608;2023-04-24T23:43:51;4.47;;;1.35;;
22415;SDS011;12204;50.600;4.608;2023-04-24T23:48:55;2.90;;;1.10;;
22415;SDS011;12204;50.600;4.608;2023-04-24T23:53:59;5.75;;;1.20;;
22415;SDS011;12204;50.600;4.608;2023-04-24T23:59:02;4.68;;;1.20;;
